Time;durP1;ratioP1;P1;durP2;ratioP2;P2;SDS_P1;SDS_P2;PMS_P1;PMS_P2;Temp;Humidity;BMP_temperature;BMP_pressure;BME280_temperature;BME280_humidity;BME280_pressure;Samples;Min_cycle;Max_cycle;Signal;HPM_P1;HPM_P2
2023/08/15 00:01:10;;;;;;;5.65;3.95;;;;;;;24.75;nan;62167.53;5012800;28;20297;-64
2023/08/15 00:03:35;;;;;;;6.90;4.20;;;;;;;24.76;nan;62258.13;5012224;28;20611;-64
2023/08/15 00:06:05;;;;;;;7.15;4.32;;;;;;;24.58;nan;62178.06;5013067;28;20233;-64
2023/08/15 00:08:32;;;;;;;6.22;4.53;;;;;;;24.11;nan;62202.81;5012673;28;20167;-64
2023/08/15 00:10:57;;;;;;;7.22;4.07;;;;;;;24.57;nan;62150.78;5013016;28;20172;-64
2023/08/15 00:13:22;;;;;;;6.72;4.35;;;;;;;24.16;nan;62036.19;5012443;28;20190;-63
2023/08/15 00:15:48;;;;;;;5.57;4.00;;;;;;;24.46;nan;62164.38;5012539;28;20200;-64
2023/08/15 00:18:18;;;;;;;6.43;3.90;;;;;;;24.55;nan;62213.81;5012544;28;20168;-64
2023/08/15 00:20:47;;;;;;;5.30;3.90;;;;;;;24.13;nan;62223.97;5012697;28;20187;-65
2023/08/15 00:23:12;;;;;;;5.88;3.88;;;;;;;24.52;nan;62152.91;5012186;28;20299;-64
2023/08/15 00:25:37;;;;;;;5.90;3.78;;;;;;;24.47;nan;62115.88;5012571;28;20251;-65
2023/08/15 00:28:03;;;;;;;7.38;4.35;;;;;;;24.64;nan;62158.75;5011912;28;20228;-64
2023/08/15 00:30:31;;;;;;;7.15;4.22;;;;;;;24.49;nan;62251.41;5012402;28;20164;-65
2023/08/15 00:32:56;;;;;;;6.75;4.18;;;;;;;24.64;nan;62166.59;5010985;28;20187;-63
2023/08/15 00:35:22;;;;;;;6.38;4.32;;;;;;;24.50;nan;62239.50;5012477;28;20171;-64
2023/08/15 00:37:47;;;;;;;6.65;4.25;;;;;;;24.24;nan;62039.50;5012126;28;20161;-64
2023/08/15 00:40:12;;;;;;;6.05;4.20;;;;;;;24.40;nan;62141.31;5011643;28;20267;-63
2023/08/15 00:42:38;;;;;;;4.85;3.75;;;;;;;24.29;nan;62225.97;5011301;28;20331;-64
2023/08/15 00:45:08;;;;;;;7.03;4.18;;;;;;;24.38;nan;62217.97;5012026;28;20204;-64
2023/08/15 00:48:08;;;;;;;7.50;4.32;;;;;;;24.43;nan;62200.16;5011860;28;20177;-64
2023/08/15 00:50:54;;;;;;;6.38;3.90;;;;;;;24.36;nan;62189.56;5011071;28;20184;-65
2023/08/15 00:53:21;;;;;;;5.50;3.95;;;;;;;24.45;nan;62134.50;5011606;28;20164;-64
2023/08/15 00:55:46;;;;;;;7.25;4.15;;;;;;;21.08;nan;63699.88;5011742;28;20204;-65
2023/08/15 00:58:12;;;;;;;6.03;4.13;;;;;;;24.32;nan;62237.25;5011489;28;20176;-65
2023/08/15 01:00:37;;;;;;;5.68;4.15;;;;;;;24.53;nan;62140.44;5011535;28;20610;-64
2023/08/15 01:03:03;;;;;;;6.82;4.60;;;;;;;24.36;nan;62100.19;5009760;28;20207;-64
2023/08/15 01:05:29;;;;;;;7.68;4.30;;;;;;;24.52;nan;62134.06;5010217;28;20561;-64
2023/08/15 01:07:55;;;;;;;6.05;4.00;;;;;;;24.53;nan;62150.88;5010283;28;20196;-64
2023/08/15 01:10:20;;;;;;;6.63;4.40;;;;;;;24.61;nan;62171.00;5010234;28;20172;-64
2023/08/15 01:12:57;;;;;;;6.05;4.05;;;;;;;24.53;nan;62375.59;5010229;28;20168;-64
2023/08/15 01:15:26;;;;;;;4.65;3.58;;;;;;;24.50;nan;62283.34;5010276;28;20217;-64
2023/08/15 01:18:00;;;;;;;7.00;4.50;;;;;;;24.70;nan;62227.16;5010092;28;20175;-64
2023/08/15 01:20:32;;;;;;;8.63;4.40;;;;;;;24.48;nan;62247.66;5012031;28;20183;-64
2023/08/15 01:23:03;;;;;;;6.50;4.30;;;;;;;24.60;nan;62305.22;5011606;28;20294;-64
2023/08/15 01:25:32;;;;;;;7.68;4.10;;;;;;;24.72;nan;62245.13;5011969;28;20184;-64
2023/08/15 01:27:58;;;;;;;5.47;3.63;;;;;;;24.71;nan;62202.19;5010888;28;20232;-64
2023/08/15 01:30:23;;;;;;;6.18;4.07;;;;;;;24.66;nan;62178.75;5011545;28;20161;-63
2023/08/15 01:32:55;;;;;;;6.88;4.10;;;;;;;24.65;nan;62172.38;5011731;28;20180;-64
2023/08/15 01:35:46;;;;;;;8.65;4.05;;;;;;;24.40;nan;62168.00;5011869;28;20168;-63
2023/08/15 01:38:55;;;;;;;6.38;3.90;;;;;;;24.57;nan;62202.47;5011766;28;20173;-64
2023/08/15 01:41:24;;;;;;;6.38;4.20;;;;;;;24.44;nan;62106.66;5006409;28;20216;-63
2023/08/15 01:43:51;;;;;;;8.20;4.10;;;;;;;24.45;nan;62120.88;5011296;28;20172;-63
2023/08/15 01:46:18;;;;;;;7.13;4.40;;;;;;;24.55;nan;62179.84;5011496;28;20176;-63
2023/08/15 01:48:43;;;;;;;6.57;3.95;;;;;;;24.45;nan;62376.91;5011433;28;20176;-65
2023/08/15 01:51:08;;;;;;;7.88;4.43;;;;;;;24.25;nan;62137.28;5011425;28;20194;-64
2023/08/15 01:53:35;;;;;;;6.60;4.38;;;;;;;24.43;nan;62176.63;5011388;28;20176;-63
2023/08/15 01:56:01;;;;;;;6.22;4.05;;;;;;;24.37;nan;62146.28;5010143;28;20187;-64
2023/08/15 01:58:27;;;;;;;8.55;4.15;;;;;;;24.14;nan;62206.22;5011699;28;20196;-63
2023/08/15 02:00:52;;;;;;;6.18;4.18;;;;;;;24.11;nan;62203.41;5011244;28;20627;-64
2023/08/15 02:03:17;;;;;;;7.78;4.40;;;;;;;24.12;nan;62084.41;5011473;28;20200;-64
2023/08/15 02:05:43;;;;;;;7.13;4.20;;;;;;;24.00;nan;61992.44;5011032;28;20206;-64
2023/08/15 02:08:08;;;;;;;6.47;4.10;;;;;;;23.94;nan;62079.03;5011857;28;20247;-65
2023/08/15 02:10:34;;;;;;;9.68;4.97;;;;;;;20.84;nan;63648.47;5011937;28;20608;-64
2023/08/15 02:12:59;;;;;;;7.57;4.30;;;;;;;24.07;nan;62099.63;5010343;28;20184;-64
2023/08/15 02:15:24;;;;;;;7.53;4.15;;;;;;;24.07;nan;62083.94;5012731;28;20180;-63
2023/08/15 02:17:50;;;;;;;6.03;4.30;;;;;;;23.99;nan;62046.13;5013576;28;20242;-64
2023/08/15 02:20:15;;;;;;;5.38;4.20;;;;;;;23.93;nan;62342.13;5012922;28;20657;-63
2023/08/15 02:22:41;;;;;;;6.25;4.18;;;;;;;24.01;nan;62081.75;5014236;28;20211;-63
2023/08/15 02:25:06;;;;;;;5.63;3.78;;;;;;;23.81;nan;62020.44;5014603;28;20184;-63
2023/08/15 02:27:32;;;;;;;6.55;4.18;;;;;;;24.02;nan;62080.28;5014129;28;20202;-63
2023/08/15 02:29:57;;;;;;;8.00;4.53;;;;;;;23.85;nan;62246.28;5014545;28;20183;-64
2023/08/15 02:32:22;;;;;;;6.47;4.30;;;;;;;23.90;nan;62024.88;5014403;28;20659;-63
2023/08/15 02:34:48;;;;;;;6.53;4.28;;;;;;;24.05;nan;62207.00;5014412;28;20654;-63
2023/08/15 02:37:13;;;;;;;6.70;4.97;;;;;;;23.85;nan;62051.09;5014009;28;20187;-64
2023/08/15 02:39:38;;;;;;;7.28;4.45;;;;;;;23.99;nan;62072.25;5014326;28;20184;-64
2023/08/15 02:42:04;;;;;;;6.80;4.40;;;;;;;23.77;nan;62002.81;5014286;28;20192;-64
2023/08/15 02:44:29;;;;;;;6.78;4.40;;;;;;;23.80;nan;62026.56;5013105;28;20271;-64
2023/08/15 02:46:55;;;;;;;7.38;4.30;;;;;;;23.76;nan;62038.81;5014172;28;20168;-64
2023/08/15 02:49:20;;;;;;;6.32;4.40;;;;;;;23.90;nan;62027.50;5011944;28;20639;-63
2023/08/15 02:51:46;;;;;;;8.25;4.78;;;;;;;16.41;nan;61343.75;5013620;28;20674;-64
2023/08/15 02:54:11;;;;;;;6.85;4.50;;;;;;;23.90;nan;62062.00;4895642;28;20224;-64
2023/08/15 02:56:36;;;;;;;5.38;3.97;;;;;;;23.91;nan;62081.38;5014584;28;20260;-64
2023/08/15 02:59:02;;;;;;;8.35;5.07;;;;;;;23.78;nan;61939.28;5013652;28;20238;-64
2023/08/15 03:01:27;;;;;;;7.10;4.30;;;;;;;23.42;nan;62124.72;5010638;28;20655;-64
2023/08/15 03:03:53;;;;;;;7.15;4.43;;;;;;;23.85;nan;62178.97;5008738;28;20222;-64
2023/08/15 03:06:18;;;;;;;6.65;4.22;;;;;;;23.87;nan;62084.66;5004909;28;20184;-65
2023/08/15 03:08:46;;;;;;;6.57;4.22;;;;;;;23.78;nan;62069.78;5012462;28;20192;-64
2023/08/15 03:11:11;;;;;;;6.20;4.20;;;;;;;23.92;nan;62175.94;5013563;28;20202;-64
2023/08/15 03:13:36;;;;;;;9.05;4.80;;;;;;;23.85;nan;62170.56;5013421;28;20271;-64
2023/08/15 03:16:02;;;;;;;6.40;4.50;;;;;;;23.73;nan;62118.31;5013393;28;20250;-64
2023/08/15 03:18:27;;;;;;;6.47;4.53;;;;;;;23.46;nan;61983.81;5013537;28;20199;-64
2023/08/15 03:21:03;;;;;;;7.65;4.95;;;;;;;23.74;nan;62286.47;5012036;28;20226;-64
2023/08/15 03:23:28;;;;;;;7.20;4.63;;;;;;;23.71;nan;62014.84;5013800;28;20225;-64
2023/08/15 03:25:58;;;;;;;5.57;4.15;;;;;;;23.72;nan;62021.19;5012310;28;20271;-64
2023/08/15 03:28:23;;;;;;;8.73;5.00;;;;;;;23.74;nan;62177.44;5013377;28;20675;-64
2023/08/15 03:30:49;;;;;;;8.40;5.15;;;;;;;23.78;nan;62064.00;5013274;28;20225;-64
2023/08/15 03:33:15;;;;;;;7.93;4.93;;;;;;;23.95;nan;62054.06;5013839;28;20179;-63
2023/08/15 03:35:48;;;;;;;5.90;4.38;;;;;;;24.01;nan;62071.31;5013203;28;20851;-63
2023/08/15 03:38:19;;;;;;;6.93;4.82;;;;;;;24.12;nan;62214.97;5012846;28;20670;-64
2023/08/15 03:40:47;;;;;;;7.70;4.82;;;;;;;24.07;nan;62094.41;5013033;28;20251;-65
2023/08/15 03:43:13;;;;;;;8.73;4.97;;;;;;;23.97;nan;62077.78;5012684;28;20208;-64
2023/08/15 03:45:39;;;;;;;10.85;4.63;;;;;;;23.69;nan;61991.13;5012988;28;20172;-65
2023/08/15 03:48:06;;;;;;;6.97;4.82;;;;;;;23.65;nan;62156.75;5013131;28;20176;-64
2023/08/15 03:50:32;;;;;;;9.73;5.40;;;;;;;23.76;nan;62023.16;5012865;28;20176;-64
2023/08/15 03:52:58;;;;;;;9.18;5.45;;;;;;;23.68;nan;62052.59;5011058;28;20245;-64
2023/08/15 03:55:23;;;;;;;8.77;4.95;;;;;;;23.67;nan;62041.63;5012699;28;20267;-64
2023/08/15 03:57:49;;;;;;;7.88;5.10;;;;;;;23.76;nan;62061.72;5012483;28;20233;-64
2023/08/15 04:00:18;;;;;;;6.40;4.57;;;;;;;23.58;nan;62049.63;5012258;28;20172;-64
2023/08/15 04:02:44;;;;;;;7.10;4.65;;;;;;;23.55;nan;61973.16;5011333;28;20290;-64
2023/08/15 04:05:11;;;;;;;10.77;4.85;;;;;;;23.70;nan;62039.22;5012190;28;20556;-64
2023/08/15 04:07:36;;;;;;;8.75;5.22;;;;;;;23.73;nan;62066.13;5012150;28;20176;-64
2023/08/15 04:10:02;;;;;;;11.52;5.90;;;;;;;23.54;nan;62013.19;5010232;28;20631;-64
2023/08/15 04:12:27;;;;;;;9.65;6.32;;;;;;;23.49;nan;62065.47;5011363;28;20183;-63
2023/08/15 04:14:53;;;;;;;9.13;5.18;;;;;;;23.47;nan;62008.41;5011682;28;20200;-63
2023/08/15 04:17:18;;;;;;;12.50;5.60;;;;;;;23.46;nan;61962.94;5011785;28;20171;-64
2023/08/15 04:19:44;;;;;;;7.50;5.40;;;;;;;23.64;nan;62090.38;5011924;28;20208;-65
2023/08/15 04:22:09;;;;;;;7.53;4.82;;;;;;;23.55;nan;62059.25;5001583;28;20264;-66
2023/08/15 04:24:34;;;;;;;7.95;5.28;;;;;;;23.51;nan;62161.66;5002316;28;20180;-65
2023/08/15 04:27:00;;;;;;;8.02;5.20;;;;;;;23.59;nan;62099.75;5001761;28;20175;-65
2023/08/15 04:29:26;;;;;;;10.50;5.30;;;;;;;23.46;nan;61960.31;5006050;28;20219;-65
2023/08/15 04:31:51;;;;;;;8.95;5.03;;;;;;;23.73;nan;62024.38;5004457;28;20176;-66
2023/08/15 04:34:16;;;;;;;8.45;4.90;;;;;;;23.60;nan;61997.13;5001201;28;20187;-66
2023/08/15 04:36:46;;;;;;;8.93;5.60;;;;;;;23.59;nan;62053.38;5002020;28;20264;-65
2023/08/15 04:39:12;;;;;;;8.23;5.53;;;;;;;23.56;nan;62151.13;5002961;28;20215;-65
2023/08/15 04:41:37;;;;;;;6.90;5.25;;;;;;;23.47;nan;62020.88;5001523;28;20215;-65
2023/08/15 04:44:03;;;;;;;13.65;5.85;;;;;;;23.39;nan;62011.78;4997704;28;20199;-65
2023/08/15 04:46:28;;;;;;;8.70;4.95;;;;;;;23.48;nan;62087.25;4992090;28;20177;-64
2023/08/15 04:48:53;;;;;;;11.57;5.22;;;;;;;23.32;nan;62057.09;5008980;28;20179;-65
2023/08/15 04:51:19;;;;;;;10.27;5.32;;;;;;;23.35;nan;61924.34;5011550;28;20592;-65
2023/08/15 04:53:44;;;;;;;7.90;5.13;;;;;;;23.61;nan;62047.25;5011541;28;20238;-65
2023/08/15 04:56:11;;;;;;;7.50;4.55;;;;;;;23.64;nan;61988.63;5010838;28;20188;-65
2023/08/15 04:58:37;;;;;;;7.07;4.72;;;;;;;23.57;nan;62092.84;5010636;28;20179;-66
2023/08/15 05:01:02;;;;;;;8.70;5.50;;;;;;;23.48;nan;62014.22;5011154;28;20229;-66
2023/08/15 05:03:28;;;;;;;9.57;5.68;;;;;;;23.43;nan;62003.28;5010395;28;20797;-66
2023/08/15 05:05:53;;;;;;;7.28;4.82;;;;;;;23.48;nan;62011.59;5011324;28;20262;-65
2023/08/15 05:08:19;;;;;;;6.80;5.13;;;;;;;23.65;nan;62028.91;5011178;28;20172;-65
2023/08/15 05:10:44;;;;;;;7.72;4.80;;;;;;;23.86;nan;62075.16;5011265;28;20184;-65
2023/08/15 05:13:10;;;;;;;7.05;4.50;;;;;;;24.01;nan;62081.75;5010424;28;20661;-65
2023/08/15 05:15:35;;;;;;;7.28;5.22;;;;;;;23.91;nan;62086.59;5010736;28;20184;-65
2023/08/15 05:18:01;;;;;;;8.82;5.45;;;;;;;23.81;nan;62036.09;5010717;28;20183;-65
2023/08/15 05:20:27;;;;;;;9.00;5.22;;;;;;;24.01;nan;62079.16;5011315;28;20660;-65
2023/08/15 05:22:53;;;;;;;10.88;5.57;;;;;;;23.85;nan;62183.63;5010438;28;20210;-66
2023/08/15 05:25:18;;;;;;;7.05;4.97;;;;;;;23.90;nan;62028.06;5010343;28;20276;-65
2023/08/15 05:27:44;;;;;;;11.40;5.35;;;;;;;20.68;nan;61840.28;5010162;28;20606;-65
2023/08/15 05:30:10;;;;;;;8.68;5.25;;;;;;;23.70;nan;62031.41;5010988;28;20184;-65
2023/08/15 05:32:35;;;;;;;6.82;5.10;;;;;;;23.74;nan;61973.91;5009856;28;20611;-64
2023/08/15 05:35:01;;;;;;;6.95;4.88;;;;;;;23.95;nan;62022.75;5010967;28;20211;-65
2023/08/15 05:37:26;;;;;;;8.55;4.97;;;;;;;23.90;nan;62103.19;5011114;28;20171;-65
2023/08/15 05:39:52;;;;;;;7.38;4.70;;;;;;;23.88;nan;62203.28;5010895;28;20168;-65
2023/08/15 05:42:17;;;;;;;10.90;4.88;;;;;;;24.06;nan;62200.31;5008416;28;20334;-66
2023/08/15 05:44:46;;;;;;;12.43;6.28;;;;;;;23.98;nan;62230.34;5010316;28;20655;-65
2023/08/15 05:47:12;;;;;;;9.73;5.82;;;;;;;24.15;nan;62126.44;5010038;28;20189;-65
2023/08/15 05:49:38;;;;;;;7.95;4.82;;;;;;;24.00;nan;62044.66;5011260;28;20214;-65
2023/08/15 05:52:03;;;;;;;7.38;4.88;;;;;;;24.21;nan;62182.91;5014916;28;20623;-65
2023/08/15 05:54:29;;;;;;;10.32;5.25;;;;;;;24.36;nan;62256.91;5014290;28;20168;-65
2023/08/15 05:56:55;;;;;;;9.23;4.82;;;;;;;24.42;nan;62203.66;5013245;28;20247;-65
2023/08/15 05:59:21;;;;;;;8.98;5.20;;;;;;;24.49;nan;62258.69;5014484;28;20211;-65
2023/08/15 06:01:46;;;;;;;8.35;4.93;;;;;;;24.44;nan;62253.53;5013873;28;20242;-65
2023/08/15 06:04:12;;;;;;;7.15;5.20;;;;;;;24.73;nan;62199.25;5013901;28;20186;-65
2023/08/15 06:06:37;;;;;;;8.05;4.72;;;;;;;24.42;nan;62235.00;5014437;28;20650;-65
2023/08/15 06:09:03;;;;;;;10.20;4.35;;;;;;;24.42;nan;62248.63;5013732;28;20180;-64
2023/08/15 06:11:29;;;;;;;9.38;4.55;;;;;;;22.99;nan;62115.41;5012609;28;20192;-64
2023/08/15 06:13:55;;;;;;;8.65;5.30;;;;;;;24.56;nan;62243.72;5011495;28;20191;-64
2023/08/15 06:16:20;;;;;;;8.52;4.90;;;;;;;24.72;nan;62305.84;5012229;28;20297;-64
2023/08/15 06:18:46;;;;;;;8.77;5.32;;;;;;;24.79;nan;62234.81;5012339;28;20183;-63
2023/08/15 06:21:11;;;;;;;16.15;6.05;;;;;;;24.77;nan;62214.25;5010683;28;20179;-63
2023/08/15 06:23:37;;;;;;;11.13;5.35;;;;;;;24.18;nan;62237.50;5008589;28;20203;-62
2023/08/15 06:26:05;;;;;;;7.93;4.63;;;;;;;24.88;nan;62211.69;5011879;28;20184;-64
2023/08/15 06:28:31;;;;;;;8.80;5.22;;;;;;;24.74;nan;62281.41;5013416;28;20223;-64
2023/08/15 06:30:56;;;;;;;6.82;4.72;;;;;;;24.62;nan;62302.25;5013893;28;20175;-65
2023/08/15 06:33:21;;;;;;;6.97;4.45;;;;;;;24.79;nan;62182.53;4994103;28;20173;-65
2023/08/15 06:35:47;;;;;;;9.40;4.97;;;;;;;24.89;nan;62222.72;4994800;28;20187;-63
2023/08/15 06:38:12;;;;;;;7.45;4.50;;;;;;;24.84;nan;62222.78;4994881;28;20169;-64
2023/08/15 06:40:39;;;;;;;8.20;4.95;;;;;;;24.79;nan;62266.75;4994538;28;20719;-66
2023/08/15 06:43:04;;;;;;;7.72;4.43;;;;;;;24.96;nan;62317.56;4995565;28;20196;-65
2023/08/15 06:45:30;;;;;;;12.70;5.45;;;;;;;24.85;nan;62259.97;5013817;28;20605;-64
2023/08/15 06:47:55;;;;;;;8.88;4.80;;;;;;;24.95;nan;62164.75;5014250;28;20271;-64
2023/08/15 06:50:20;;;;;;;9.02;5.28;;;;;;;25.15;nan;62328.22;5014061;28;20659;-64
2023/08/15 06:52:46;;;;;;;8.65;4.63;;;;;;;25.13;nan;62236.44;5013992;28;20179;-65
2023/08/15 06:55:11;;;;;;;9.40;4.70;;;;;;;25.35;nan;62269.38;5013736;28;20177;-64
2023/08/15 06:57:37;;;;;;;9.10;4.95;;;;;;;25.25;nan;62284.69;5013723;28;20183;-64
2023/08/15 07:00:06;;;;;;;8.27;5.30;;;;;;;25.29;nan;62464.56;5013739;28;20250;-65
2023/08/15 07:02:32;;;;;;;9.68;4.80;;;;;;;25.60;nan;62261.25;5013635;28;20211;-64
2023/08/15 07:04:57;;;;;;;7.60;4.30;;;;;;;25.69;nan;62268.91;5013206;28;20180;-65
2023/08/15 07:07:23;;;;;;;8.57;4.72;;;;;;;25.57;nan;62236.34;5013877;28;20640;-65
2023/08/15 07:09:49;;;;;;;10.77;5.13;;;;;;;25.62;nan;62339.44;5013652;28;20256;-64
2023/08/15 07:12:17;;;;;;;6.63;4.55;;;;;;;25.66;nan;62312.63;5013404;28;20266;-64
2023/08/15 07:14:45;;;;;;;7.80;5.00;;;;;;;25.66;nan;62367.03;5013624;28;20171;-64
2023/08/15 07:17:11;;;;;;;10.40;5.50;;;;;;;25.40;nan;62396.00;5013728;28;20156;-65
2023/08/15 07:19:36;;;;;;;8.88;5.18;;;;;;;25.45;nan;62412.19;5013659;28;20176;-64
2023/08/15 07:22:01;;;;;;;8.80;4.82;;;;;;;25.49;nan;62390.59;5013294;28;20231;-64
2023/08/15 07:24:27;;;;;;;7.38;4.28;;;;;;;25.53;nan;62460.00;5012542;28;20656;-66
2023/08/15 07:26:52;;;;;;;8.85;4.25;;;;;;;25.40;nan;62235.81;5013203;28;20184;-64
2023/08/15 07:29:17;;;;;;;7.78;4.82;;;;;;;25.38;nan;62375.41;5013212;28;20230;-65
2023/08/15 07:31:43;;;;;;;5.88;4.20;;;;;;;25.47;nan;62270.56;5013392;28;20207;-64
2023/08/15 07:34:08;;;;;;;8.30;4.88;;;;;;;25.56;nan;62324.19;5011777;28;20661;-65
2023/08/15 07:36:34;;;;;;;6.85;4.38;;;;;;;25.46;nan;62211.84;5012971;28;20195;-65
2023/08/15 07:38:59;;;;;;;6.20;4.25;;;;;;;25.40;nan;62288.72;5012462;28;20203;-65
2023/08/15 07:41:25;;;;;;;5.70;4.28;;;;;;;25.68;nan;62432.13;5012800;28;20206;-64
2023/08/15 07:43:50;;;;;;;8.05;4.97;;;;;;;25.71;nan;62278.47;5013121;28;20235;-64
2023/08/15 07:46:16;;;;;;;9.68;4.65;;;;;;;25.80;nan;62354.19;5012900;28;20210;-65
2023/08/15 07:48:42;;;;;;;8.30;4.97;;;;;;;25.88;nan;62329.28;5012683;28;20184;-64
2023/08/15 07:51:08;;;;;;;7.25;4.60;;;;;;;25.59;nan;62393.63;5012666;28;20176;-65
2023/08/15 07:53:33;;;;;;;6.55;4.10;;;;;;;25.73;nan;62304.88;5012935;28;20179;-65
2023/08/15 07:55:59;;;;;;;7.60;4.43;;;;;;;25.85;nan;62456.78;5012694;28;20217;-63
2023/08/15 07:58:24;;;;;;;6.85;4.60;;;;;;;25.84;nan;62369.25;5012877;28;20583;-64
2023/08/15 08:00:50;;;;;;;6.75;4.32;;;;;;;25.67;nan;62366.09;5010763;28;20539;-65
2023/08/15 08:03:16;;;;;;;9.30;4.38;;;;;;;25.79;nan;62316.41;5011031;28;20200;-65
2023/08/15 08:05:42;;;;;;;8.18;4.50;;;;;;;26.00;nan;62329.88;5012294;28;20584;-65
2023/08/15 08:08:08;;;;;;;5.88;4.15;;;;;;;25.88;nan;62436.66;5012722;28;20175;-63
2023/08/15 08:10:33;;;;;;;8.27;4.55;;;;;;;26.05;nan;62364.41;5012090;28;20195;-64
2023/08/15 08:13:01;;;;;;;8.70;4.22;;;;;;;26.12;nan;62377.63;5011879;28;20258;-65
2023/08/15 08:15:28;;;;;;;6.32;4.40;;;;;;;26.14;nan;62379.91;5012377;28;20186;-64
2023/08/15 08:17:53;;;;;;;9.15;4.70;;;;;;;25.84;nan;62338.41;5012393;28;20259;-66
2023/08/15 08:20:20;;;;;;;6.05;4.28;;;;;;;25.60;nan;62286.88;5012365;28;20260;-64
2023/08/15 08:22:45;;;;;;;6.93;4.47;;;;;;;25.67;nan;62305.88;5011814;28;20566;-65
2023/08/15 08:25:19;;;;;;;8.15;4.30;;;;;;;25.59;nan;62181.03;5012248;28;20190;-65
2023/08/15 08:27:45;;;;;;;6.07;4.40;;;;;;;25.80;nan;62325.94;5012374;28;20714;-64
2023/08/15 08:30:17;;;;;;;6.20;4.32;;;;;;;25.66;nan;62299.53;5012434;28;20184;-64
2023/08/15 08:32:43;;;;;;;7.28;4.35;;;;;;;25.70;nan;62340.16;5011935;28;20227;-65
2023/08/15 08:35:09;;;;;;;6.50;4.18;;;;;;;25.72;nan;62358.16;5011945;28;20176;-63
2023/08/15 08:37:35;;;;;;;7.78;4.00;;;;;;;25.78;nan;62423.19;5011603;28;20183;-64
2023/08/15 08:40:00;;;;;;;10.00;4.10;;;;;;;25.95;nan;62421.66;5010746;28;20172;-65
2023/08/15 08:42:27;;;;;;;6.00;3.92;;;;;;;25.87;nan;62364.81;5010602;28;20204;-65
2023/08/15 08:44:53;;;;;;;8.32;4.57;;;;;;;25.91;nan;62354.22;5012030;28;20231;-65
2023/08/15 08:47:21;;;;;;;7.65;4.43;;;;;;;25.91;nan;62455.78;5011492;28;20564;-64
2023/08/15 08:49:48;;;;;;;6.13;3.90;;;;;;;25.97;nan;62307.56;5007522;28;20663;-65
2023/08/15 08:52:15;;;;;;;7.10;4.80;;;;;;;25.85;nan;62477.72;5011144;28;20194;-65
2023/08/15 08:54:41;;;;;;;7.30;4.50;;;;;;;26.00;nan;62329.31;5011141;28;20554;-64
2023/08/15 08:57:07;;;;;;;6.15;4.35;;;;;;;25.86;nan;62355.81;5011476;28;20226;-64
2023/08/15 08:59:35;;;;;;;7.18;4.10;;;;;;;25.97;nan;62291.84;5011893;28;20191;-64
2023/08/15 09:02:00;;;;;;;6.25;4.60;;;;;;;26.18;nan;62342.56;5011497;28;20200;-65
2023/08/15 09:04:26;;;;;;;9.57;4.30;;;;;;;25.99;nan;62525.19;5011271;28;20168;-65
2023/08/15 09:06:52;;;;;;;5.57;3.85;;;;;;;26.06;nan;62365.53;5011245;28;20184;-65
2023/08/15 09:09:18;;;;;;;6.85;4.18;;;;;;;26.01;nan;62338.88;5011532;28;20274;-65
2023/08/15 09:11:46;;;;;;;6.32;4.20;;;;;;;26.13;nan;62325.81;5010054;28;20544;-64
2023/08/15 09:14:12;;;;;;;7.35;4.25;;;;;;;26.12;nan;62466.72;5011071;28;20176;-64
2023/08/15 09:16:48;;;;;;;6.72;4.50;;;;;;;25.99;nan;62362.78;5011006;28;20590;-64
2023/08/15 09:19:14;;;;;;;6.63;4.43;;;;;;;26.24;nan;62385.53;5011094;28;20208;-64
2023/08/15 09:21:40;;;;;;;7.63;4.53;;;;;;;25.44;nan;62347.66;5011191;28;20176;-64
2023/08/15 09:24:06;;;;;;;6.60;4.22;;;;;;;26.48;nan;62433.94;5013373;28;20168;-65
2023/08/15 09:26:33;;;;;;;8.48;5.28;;;;;;;26.37;nan;62410.88;5015203;28;20176;-65
2023/08/15 09:28:59;;;;;;;9.50;4.72;;;;;;;26.66;nan;62474.91;5014217;28;20228;-65
2023/08/15 09:31:24;;;;;;;9.80;5.63;;;;;;;26.57;nan;62527.53;5013532;28;20655;-64
2023/08/15 09:33:50;;;;;;;7.50;4.60;;;;;;;24.17;nan;62209.69;5013766;28;20195;-64
2023/08/15 09:36:15;;;;;;;9.63;4.43;;;;;;;26.61;nan;62412.06;5014143;28;20180;-65
2023/08/15 09:38:41;;;;;;;8.68;4.15;;;;;;;26.74;nan;62486.66;5013551;28;20230;-64
2023/08/15 09:41:10;;;;;;;6.53;4.00;;;;;;;26.55;nan;62426.19;5014753;28;20172;-65
2023/08/15 09:43:36;;;;;;;5.97;4.15;;;;;;;26.65;nan;62473.75;5014197;28;20220;-64
2023/08/15 09:46:02;;;;;;;7.05;4.45;;;;;;;26.75;nan;62485.75;5013689;28;20179;-65
2023/08/15 09:48:28;;;;;;;6.53;4.43;;;;;;;26.51;nan;62523.28;5012756;28;20581;-64
2023/08/15 09:50:57;;;;;;;6.60;4.00;;;;;;;26.62;nan;62462.47;5013548;28;20242;-65
2023/08/15 09:53:23;;;;;;;6.05;4.25;;;;;;;26.61;nan;62500.63;5013235;28;20282;-64
2023/08/15 09:55:50;;;;;;;6.68;4.07;;;;;;;26.49;nan;62646.84;5012509;28;20264;-65
2023/08/15 09:58:16;;;;;;;5.82;4.18;;;;;;;26.44;nan;62329.19;5013261;28;20763;-64
2023/08/15 10:00:43;;;;;;;7.18;4.22;;;;;;;25.05;nan;62358.66;5012752;28;20267;-64
2023/08/15 10:03:28;;;;;;;7.20;4.22;;;;;;;26.82;nan;62498.41;5014462;28;20584;-65
2023/08/15 10:05:56;;;;;;;5.80;4.40;;;;;;;26.86;nan;62592.22;5015167;28;20184;-65
2023/08/15 10:08:23;;;;;;;6.63;4.70;;;;;;;27.01;nan;62509.09;5014652;28;20175;-65
2023/08/15 10:10:50;;;;;;;6.57;4.30;;;;;;;27.05;nan;62461.22;5014821;28;20192;-65
2023/08/15 10:13:18;;;;;;;7.07;4.50;;;;;;;26.99;nan;62512.06;5014360;28;20218;-64
2023/08/15 10:15:45;;;;;;;7.97;5.35;;;;;;;26.75;nan;62403.88;5014287;28;20180;-65
2023/08/15 10:18:11;;;;;;;7.53;5.00;;;;;;;26.82;nan;62554.06;5015282;28;20259;-65
2023/08/15 10:20:37;;;;;;;12.10;5.45;;;;;;;26.89;nan;62695.31;5014434;28;20211;-65
2023/08/15 10:23:07;;;;;;;7.07;4.72;;;;;;;26.89;nan;62477.59;5014434;28;20683;-65
2023/08/15 10:25:35;;;;;;;7.65;4.55;;;;;;;26.76;nan;62575.50;5014648;28;20241;-65
2023/08/15 10:28:06;;;;;;;6.95;5.10;;;;;;;26.79;nan;62489.75;5013457;28;20228;-64
2023/08/15 10:30:41;;;;;;;7.40;4.57;;;;;;;26.98;nan;62563.97;5014468;28;20183;-65
2023/08/15 10:33:12;;;;;;;9.48;4.82;;;;;;;26.91;nan;62595.31;5014431;28;20171;-65
2023/08/15 10:35:42;;;;;;;6.78;4.72;;;;;;;26.80;nan;62499.34;5013811;28;20262;-65
2023/08/15 10:38:15;;;;;;;6.97;4.70;;;;;;;26.70;nan;62652.53;5014238;28;20172;-65
2023/08/15 10:40:42;;;;;;;8.75;4.45;;;;;;;26.55;nan;62394.16;5013724;28;20172;-64
2023/08/15 10:43:10;;;;;;;7.07;4.78;;;;;;;26.69;nan;62551.75;5014624;28;20230;-65
2023/08/15 10:45:44;;;;;;;7.88;4.90;;;;;;;26.47;nan;62531.81;5014044;28;20176;-64
2023/08/15 10:48:10;;;;;;;6.53;4.60;;;;;;;26.60;nan;62402.47;5014146;28;20212;-64
2023/08/15 10:50:41;;;;;;;6.60;4.68;;;;;;;26.54;nan;62404.09;5013839;28;20196;-65
2023/08/15 10:53:07;;;;;;;6.60;4.57;;;;;;;26.57;nan;62480.34;5013678;28;20551;-64
2023/08/15 10:55:37;;;;;;;8.90;5.20;;;;;;;26.64;nan;62477.84;5013888;28;20259;-64
2023/08/15 10:58:04;;;;;;;5.90;4.28;;;;;;;26.67;nan;62528.47;5012965;28;20180;-65
2023/08/15 11:00:30;;;;;;;9.27;5.13;;;;;;;26.56;nan;62565.72;5013724;28;20188;-65
2023/08/15 11:02:56;;;;;;;6.78;4.55;;;;;;;26.57;nan;62446.25;5013801;28;20195;-64
2023/08/15 11:05:22;;;;;;;9.63;4.82;;;;;;;26.81;nan;62495.25;5013079;28;20187;-65
2023/08/15 11:07:47;;;;;;;12.93;4.72;;;;;;;26.71;nan;62394.66;5013849;28;20670;-65
2023/08/15 11:10:13;;;;;;;5.47;4.38;;;;;;;26.89;nan;62642.84;5013681;28;20183;-65
2023/08/15 11:12:47;;;;;;;7.55;5.30;;;;;;;26.66;nan;62490.63;5012282;28;20191;-65
2023/08/15 11:15:12;;;;;;;5.78;4.45;;;;;;;26.41;nan;62433.78;5013692;28;20184;-65
2023/08/15 11:17:38;;;;;;;7.35;4.93;;;;;;;26.32;nan;62420.88;5012252;28;20310;-65
2023/08/15 11:20:05;;;;;;;7.20;5.05;;;;;;;26.50;nan;62475.53;5013054;28;20204;-64
2023/08/15 11:22:31;;;;;;;7.38;5.20;;;;;;;26.46;nan;62567.38;5011807;28;20537;-65
2023/08/15 11:24:56;;;;;;;7.30;4.90;;;;;;;26.32;nan;62494.84;5013295;28;20187;-64
2023/08/15 11:27:22;;;;;;;8.77;5.38;;;;;;;26.38;nan;62425.69;5013634;28;20246;-65
2023/08/15 11:29:57;;;;;;;8.90;4.97;;;;;;;26.52;nan;62414.31;5011504;28;20286;-65
2023/08/15 11:32:24;;;;;;;7.85;4.97;;;;;;;26.32;nan;62405.72;5013755;28;20273;-64
2023/08/15 11:34:49;;;;;;;9.63;5.90;;;;;;;26.46;nan;62514.94;5012922;28;20274;-63
2023/08/15 11:37:16;;;;;;;9.07;5.22;;;;;;;26.56;nan;62429.94;5012548;28;20648;-65
2023/08/15 11:39:41;;;;;;;8.43;5.10;;;;;;;26.31;nan;62414.50;5012919;28;20172;-65
2023/08/15 11:42:07;;;;;;;7.85;5.60;;;;;;;26.23;nan;62489.78;5012866;28;20215;-64
2023/08/15 11:44:32;;;;;;;7.43;5.13;;;;;;;26.38;nan;62398.91;5012713;28;20175;-65
2023/08/15 11:46:58;;;;;;;7.72;5.47;;;;;;;26.21;nan;62348.63;5011886;28;20180;-64